Latest Weather Observations for Hervey Bay

IDQ60801

Issued at 2:32 am EST Sunday 19 April 2015 (issued every 30 minutes, with the page automatically refreshed every 10 minutes)

About weather observations | Map of weather stations | Latest weather observations for QLD | Other Formats
Station Details ID: 040405 Name: HERVEY BAY AIRPORT Lat: -25.32 Lon: 152.88 Height: 12.98 m
Data from the previous 72 hours. | See also: Recent months at Hervey Bay
Date/Time
EST
Temp
°C
App
Temp
°C
Dew
Point
Rel
Hum
%
Delta-T
°C
Wind Press
QNH
hPa
Press
MSL
hPa
Rain
since 9 am
mm
Dir
 
Spd
km/h
Gust
km/h
Spd
kts
Gust
kts
19/02:30am 20.4 23.7 19.2 93 0.8 CALM 0 0 0 0 1018.4 1018.3 2.0
19/02:00am 20.5 23.5 19.3 93 0.8 WSW 2 6 1 3 1018.6 1018.5 2.0
19/01:30am 20.5 23.9 19.3 93 0.8 CALM 0 6 0 3 1019.0 1018.9 2.0
19/01:00am 20.2 23.4 18.9 92 0.8 CALM 0 0 0 0 1019.4 1019.3 2.0
19/12:30am 20.3 23.5 18.8 91 0.9 CALM 0 0 0 0 1019.6 1019.5 2.0
19/12:00am 20.8 24.0 18.9 89 1.2 CALM 0 0 0 0 1019.8 1019.7 2.0
 
Date/Time
EST
Temp
°C
App
Temp
°C
Dew
Point
Rel
Hum
%
Delta-T
°C
Wind Press
QNH
hPa
Press
MSL
hPa
Rain
since 9 am
mm
Dir
 
Spd
km/h
Gust
km/h
Spd
kts
Gust
kts
18/11:30pm 22.0 23.9 19.7 87 1.5 E 9 13 5 7 1019.9 1019.8 2.0
18/11:00pm 22.4 23.8 19.6 84 1.8 E 11 13 6 7 1020.1 1020.0 2.0
18/10:30pm 22.8 24.0 19.8 83 1.9 E 13 17 7 9 1020.0 1019.9 2.0
18/10:00pm 22.8 24.3 19.8 83 1.9 ESE 11 17 6 9 1020.2 1020.1 2.0
18/09:30pm 23.3 25.4 20.2 83 2.0 E 9 11 5 6 1020.4 1020.3 2.0
18/09:00pm 23.8 25.1 20.1 80 2.4 E 13 17 7 9 1020.3 1020.2 2.0
18/08:30pm 24.1 24.8 20.4 80 2.4 ENE 17 24 9 13 1020.2 1020.1 2.0
18/08:00pm 23.7 25.0 20.2 81 2.3 ENE 13 15 7 8 1019.9 1019.8 2.0
18/07:30pm 23.3 24.9 19.9 81 2.2 ENE 11 17 6 9 1019.8 1019.7 2.0
18/07:00pm 23.8 25.1 20.1 80 2.4 ENE 13 17 7 9 1019.4 1019.3 2.0
18/06:30pm 23.8 25.3 19.7 78 2.6 ENE 11 15 6 8 1019.0 1018.9 2.0
18/06:00pm 23.8 24.1 19.5 77 2.8 ENE 17 24 9 13 1018.9 1018.8 2.0
18/05:30pm 24.1 23.8 19.6 76 2.9 ENE 20 30 11 16 1018.9 1018.8 2.0
18/05:00pm 23.9 26.3 20.0 79 2.5 NNE 7 17 4 9 1018.9 1018.8 2.0
18/04:30pm 25.0 28.5 21.1 79 2.6 SSE 4 11 2 6 1018.7 1018.6 1.8
18/04:00pm 25.0 28.6 20.5 76 2.9 SSW 2 6 1 3 1018.3 1018.2 1.8
18/03:30pm 25.4 25.5 20.0 72 3.5 NE 19 30 10 16 1018.4 1018.3 0.8
18/03:00pm 26.2 29.3 21.0 73 3.4 NNE 6 9 3 5 1018.2 1018.1 0.8
18/02:30pm 24.8 25.4 19.4 72 3.5 NNE 15 20 8 11 1018.4 1018.3 0.8
18/02:00pm 24.7 26.3 20.0 75 3.0 NNE 11 22 6 12 1018.5 1018.4 0.6
18/01:30pm 27.3 27.3 18.9 60 5.4 NNE 17 26 9 14 1018.6 1018.5 0.2
18/01:00pm 28.4 28.6 18.5 55 6.3 NE 15 20 8 11 1018.9 1018.8 0.2
18/12:30pm 27.2 28.0 19.0 61 5.3 NNE 13 20 7 11 1019.5 1019.4 0.2
18/12:00pm 28.4 28.6 18.5 55 6.3 ENE 15 22 8 12 1019.9 1019.8 0.2
18/11:30am 28.3 28.6 18.7 56 6.2 ENE 15 20 8 11 1020.3 1020.2 0.2
18/11:00am 27.7 28.3 18.7 58 5.8 ENE 13 19 7 10 1020.9 1020.8 0.2
18/10:30am 27.1 28.4 19.2 62 5.1 E 11 17 6 9 1021.2 1021.1 0.2
18/10:00am 26.4 28.3 19.8 67 4.3 ENE 9 15 5 8 1021.7 1021.6 0.2
18/09:30am 25.6 27.5 19.7 70 3.8 ESE 9 17 5 9 1021.5 1021.4 0.2
18/09:00am 24.5 27.5 21.2 82 2.2 S 7 11 4 6 1021.6 1021.5 10.2
18/08:30am 23.0 25.1 20.1 84 1.9 SSW 9 11 5 6 1021.6 1021.5 10.2
18/08:00am 21.4 23.1 19.3 88 1.3 SSE 9 15 5 8 1021.4 1021.3 10.2
18/07:30am 21.6 24.1 20.2 92 0.9 S 7 13 4 7 1021.1 1021.0 10.0
18/07:00am 21.1 23.3 19.7 92 0.9 SE 7 11 4 6 1021.0 1020.9 10.0
18/06:58am 21.0 23.2 19.5 91 1.0 ESE 7 11 4 6 1021.0 1020.9 10.0
18/06:40am 21.1 23.4 19.9 93 0.8 E 7 13 4 7 1021.3 1021.2 9.6
18/06:38am 21.0 23.3 19.8 93 0.8 ENE 7 13 4 7 1021.3 1021.2 9.4
18/06:30am 21.0 23.6 20.0 94 0.6 E 6 13 3 7 1021.1 1021.0 9.0
18/06:24am 20.9 23.2 19.9 94 0.6 SE 7 11 4 6 1021.0 1020.9 9.0
18/06:00am 20.8 23.1 19.8 94 0.6 SE 7 11 4 6 1020.7 1020.6 8.0
18/05:56am 20.8 22.7 19.8 94 0.6 SE 9 11 5 6 1020.7 1020.6 8.0
18/05:40am 20.7 21.9 19.9 95 0.5 SE 13 24 7 13 1020.3 1020.2 7.6
18/05:30am 20.0 21.9 19.0 94 0.6 S 7 11 4 6 1020.3 1020.2 7.0
18/05:00am 20.2 22.2 19.2 94 0.6 S 7 9 4 5 1020.0 1019.9 7.0
18/04:30am 20.5 22.7 19.5 94 0.6 SW 7 11 4 6 1020.1 1020.0 7.0
18/04:00am 20.4 21.7 19.4 94 0.6 SSW 11 13 6 7 1020.0 1019.9 7.0
18/03:30am 20.5 21.9 19.5 94 0.6 SSW 11 15 6 8 1019.9 1019.8 7.0
18/03:00am 20.5 22.3 19.5 94 0.6 SSW 9 11 5 6 1019.9 1019.8 7.0
18/02:30am 20.8 23.0 19.6 93 0.8 SW 7 9 4 5 1020.1 1020.0 7.0
18/02:00am 21.0 23.4 20.0 94 0.6 SSW 7 9 4 5 1020.3 1020.2 7.0
18/01:30am 21.0 22.9 19.8 93 0.8 S 9 13 5 7 1020.4 1020.3 7.0
18/01:16am 21.2 23.8 20.0 93 0.8 S 6 9 3 5 1020.6 1020.5 7.0
18/01:00am 21.2 23.2 20.0 93 0.8 SSE 9 13 5 7 1020.8 1020.7 6.8
18/12:30am 21.2 22.8 20.0 93 0.8 SE 11 17 6 9 1021.1 1021.0 3.6
18/12:16am 21.1 23.0 19.7 92 0.9 ESE 9 15 5 8 1021.3 1021.2 2.4
18/12:07am 20.8 21.6 19.1 90 1.1 ESE 13 17 7 9 1021.3 1021.2 2.0
18/12:00am 20.9 20.5 19.0 89 1.2 ESE 19 33 10 18 1021.1 1021.0 2.0
 
Date/Time
EST
Temp
°C
App
Temp
°C
Dew
Point
Rel
Hum
%
Delta-T
°C
Wind Press
QNH
hPa
Press
MSL
hPa
Rain
since 9 am
mm
Dir
 
Spd
km/h
Gust
km/h
Spd
kts
Gust
kts
17/11:50pm 21.7 21.0 19.6 88 1.3 E 22 35 12 19 1021.4 1021.3 1.8
17/11:30pm 22.1 23.2 18.9 82 2.0 ESE 11 13 6 7 1021.3 1021.2 0.8
17/11:00pm 22.0 24.0 19.2 84 1.8 SE 7 11 4 6 1021.5 1021.4 0.8
17/10:30pm 22.0 25.4 20.1 89 1.2 SSE 2 6 1 3 1021.5 1021.4 0.8
17/10:00pm 22.5 24.5 20.0 86 1.6 ENE 9 13 5 7 1021.6 1021.5 0.8
17/09:30pm 22.6 24.5 20.5 88 1.4 ENE 11 17 6 9 1021.6 1021.5 0.8
17/09:00pm 21.0 24.1 19.6 92 0.9 S 2 7 1 4 1021.4 1021.3 0.8
17/08:30pm 21.1 23.5 19.7 92 0.9 S 6 7 3 4 1021.2 1021.1 0.8
17/08:00pm 21.2 23.8 19.3 89 1.2 S 4 7 2 4 1021.2 1021.1 0.8
17/07:30pm 22.0 22.6 19.5 86 1.6 ESE 15 22 8 12 1021.2 1021.1 0.6
17/07:00pm 21.9 24.5 20.0 89 1.2 SSE 6 9 3 5 1020.7 1020.6 0.4
17/06:46pm 21.9 23.8 19.8 88 1.3 SE 9 13 5 7 1020.6 1020.5 0.4
17/06:33pm 22.2 22.0 19.7 86 1.6 E 20 28 11 15 1020.6 1020.5 0.4
17/06:30pm 22.2 22.1 19.6 85 1.7 E 19 28 10 15 1020.6 1020.5 0.4
17/06:00pm 23.9 25.7 19.6 77 2.8 NE 9 13 5 7 1020.0 1019.9 0.2
17/05:30pm 24.5 25.2 18.9 71 3.6 ESE 13 15 7 8 1019.9 1019.8 0.2
17/05:00pm 24.2 23.4 17.2 65 4.3 ESE 17 30 9 16 1019.7 1019.6 0.2
17/04:30pm 26.3 25.9 18.9 63 4.7 E 19 26 10 14 1019.5 1019.4 0.2
17/04:00pm 26.4 25.3 17.7 58 5.5 ESE 20 30 11 16 1019.3 1019.2 0.2
17/03:30pm 26.6 26.1 17.9 59 5.5 ESE 17 24 9 13 1019.1 1019.0 0.2
17/03:00pm 27.4 26.1 17.3 54 6.3 ESE 20 28 11 15 1019.3 1019.2 0.2
17/02:30pm 27.5 26.0 16.8 52 6.7 ESE 20 30 11 16 1019.5 1019.4 0.2
17/02:00pm 27.4 25.8 16.4 51 6.8 ESE 20 28 11 15 1019.5 1019.4 0.2
17/01:30pm 27.9 26.3 16.5 50 7.1 ESE 20 28 11 15 1019.8 1019.7 0.2
17/01:00pm 27.8 26.3 16.7 50 6.9 ESE 20 28 11 15 1020.1 1020.0 0.2
17/12:30pm 27.8 27.1 17.3 52 6.6 ESE 17 24 9 13 1020.6 1020.5 0.2
17/12:00pm 27.2 26.9 17.4 55 6.1 ESE 15 26 8 14 1021.2 1021.1 0.2
17/11:30am 27.2 26.7 17.7 56 6.0 ESE 17 24 9 13 1021.9 1021.8 0.2
17/11:00am 27.0 28.1 19.6 64 4.8 ESE 13 20 7 11 1022.3 1022.2 0.2
17/10:30am 26.3 27.6 19.4 66 4.5 SE 11 20 6 11 1022.8 1022.7 0.2
17/10:00am 25.0 27.2 20.3 75 3.1 SSW 9 15 5 8 1023.0 1022.9 0.2
17/09:30am 23.2 24.8 20.0 82 2.1 SSW 11 15 6 8 1023.4 1023.3 0.0
17/09:00am 22.1 23.5 19.6 86 1.6 SSW 11 15 6 8 1023.8 1023.7 2.8
17/08:30am 20.8 22.6 19.6 93 0.8 SW 9 13 5 7 1023.7 1023.6 2.8
17/08:00am 20.4 22.0 19.2 93 0.8 SW 9 13 5 7 1023.6 1023.5 2.8
17/07:33am 20.2 21.8 19.2 94 0.6 N 9 11 5 6 1023.3 1023.2 2.8
17/07:30am 20.1 21.7 19.1 94 0.6 N 9 11 5 6 1023.3 1023.2 2.8
17/07:00am 18.9 20.4 17.7 93 0.7 W 6 9 3 5 1023.1 1023.0 1.8
17/06:56am 18.9 20.3 17.7 93 0.7 SW 7 9 4 5 1023.0 1022.9 1.8
17/06:30am 18.7 21.3 17.5 93 0.7 CALM 0 0 0 0 1022.6 1022.5 0.8
17/06:00am 18.4 19.5 17.2 93 0.7 SSW 7 11 4 6 1022.0 1021.9 0.8
17/05:30am 18.2 18.5 17.0 93 0.7 SSW 11 15 6 8 1021.6 1021.5 0.8
17/05:00am 17.9 18.2 16.9 94 0.6 SSW 11 13 6 7 1021.3 1021.2 0.8
17/04:30am 17.7 18.8 16.7 94 0.6 SW 6 7 3 4 1021.2 1021.1 0.8
17/04:00am 17.6 18.5 16.6 94 0.6 SSW 7 11 4 6 1020.9 1020.8 0.8
17/03:30am 17.9 18.9 16.9 94 0.6 SW 7 9 4 5 1020.9 1020.8 0.8
17/03:00am 17.9 19.1 16.8 93 0.7 WSW 6 7 3 4 1021.0 1020.9 0.8
17/02:30am 18.5 19.9 17.7 95 0.5 SW 7 9 4 5 1021.1 1021.0 0.8
17/02:00am 17.2 18.0 15.9 92 0.8 SSW 6 9 3 5 1021.6 1021.5 0.8
17/01:30am 17.8 19.6 16.5 92 0.8 SSW 2 6 1 3 1021.8 1021.7 0.8
17/01:00am 18.6 19.8 17.4 93 0.7 SSW 7 9 4 5 1022.2 1022.1 0.8
17/12:30am 18.7 19.6 17.5 93 0.7 SW 9 13 5 7 1022.3 1022.2 0.8
17/12:00am 18.9 19.9 17.7 93 0.7 SSW 9 11 5 6 1022.7 1022.6 0.8
 
Date/Time
EST
Temp
°C
App
Temp
°C
Dew
Point
Rel
Hum
%
Delta-T
°C
Wind Press
QNH
hPa
Press
MSL
hPa
Rain
since 9 am
mm
Dir
 
Spd
km/h
Gust
km/h
Spd
kts
Gust
kts
16/11:30pm 18.8 21.1 17.8 94 0.6 SW 2 9 1 5 1022.9 1022.8 0.8
16/11:00pm 18.1 20.5 16.9 93 0.7 CALM 0 0 0 0 1023.1 1023.0 0.8
16/10:30pm 17.6 18.5 16.1 91 0.9 SW 6 7 3 4 1023.3 1023.2 0.8
16/10:00pm 18.1 19.1 16.4 90 1.0 S 6 7 3 4 1023.3 1023.2 0.8
16/09:30pm 18.4 19.4 16.4 88 1.2 S 6 7 3 4 1023.3 1023.2 0.8
16/09:00pm 19.3 20.4 17.1 87 1.3 SSE 7 9 4 5 1023.2 1023.1 0.8
16/08:30pm 20.3 21.6 17.5 84 1.7 SSE 7 9 4 5 1023.3 1023.2 0.8
16/08:00pm 21.5 22.5 17.7 79 2.3 SSE 9 13 5 7 1023.0 1022.9 0.8
16/07:30pm 21.7 22.8 18.1 80 2.2 SSE 9 11 5 6 1022.7 1022.6 0.8
16/07:00pm 21.8 23.2 17.8 78 2.5 SSE 7 9 4 5 1022.5 1022.4 0.8
16/06:30pm 22.6 23.7 17.9 75 2.9 SE 9 13 5 7 1022.2 1022.1 0.8
16/06:00pm 23.5 24.2 17.9 71 3.5 SE 11 15 6 8 1022.0 1021.9 0.8
16/05:30pm 23.8 23.8 17.3 67 4.0 SE 13 20 7 11 1022.0 1021.9 0.8
16/05:00pm 24.7 24.3 17.2 63 4.6 SE 15 22 8 12 1021.7 1021.6 0.8
16/04:30pm 25.5 24.7 17.2 60 5.2 ESE 17 24 9 13 1021.7 1021.6 0.8
16/04:00pm 26.0 24.8 17.1 58 5.5 ESE 19 28 10 15 1021.6 1021.5 0.8
16/03:30pm 26.3 25.1 17.4 58 5.6 ESE 20 26 11 14 1021.6 1021.5 0.8
16/03:00pm 27.1 26.3 18.1 58 5.7 ESE 19 28 10 15 1021.5 1021.4 0.8
16/02:30pm 25.8 25.8 18.0 62 4.9 SE 15 24 8 13 1021.5 1021.4 0.8
16/02:00pm 27.3 26.3 17.5 55 6.1 ESE 19 28 10 15 1021.6 1021.5 0.8
16/01:30pm 26.4 25.1 16.9 56 5.9 ESE 19 26 10 14 1021.9 1021.8 0.6
16/01:00pm 25.7 25.3 18.1 63 4.8 ESE 17 24 9 13 1022.3 1022.2 0.6
16/12:30pm 24.1 25.0 20.0 78 2.7 SE 15 19 8 10 1022.7 1022.6 0.6
16/12:15pm 22.7 24.4 20.2 86 1.6 SE 11 17 6 9 1023.1 1023.0 0.6
16/12:00pm 21.9 21.5 19.3 85 1.6 SE 20 37 11 20 1023.3 1023.2 0.6
16/11:59am 22.0 21.6 19.4 85 1.7 SE 20 37 11 20 1023.4 1023.3 0.4
16/11:30am 23.7 24.9 19.0 75 3.0 SSE 11 17 6 9 1023.6 1023.5 0.0
16/11:00am 26.4 26.2 18.5 62 5.0 ESE 17 26 9 14 1024.2 1024.1 0.0
16/10:30am 24.9 25.6 18.8 69 3.9 ESE 13 19 7 10 1024.6 1024.5 0.0
16/10:00am 25.1 26.0 19.2 70 3.8 ESE 13 20 7 11 1024.9 1024.8 0.0
16/09:30am 24.5 26.6 19.3 73 3.3 S 7 11 4 6 1025.0 1024.9 0.0
16/09:00am 22.7 24.9 19.1 80 2.3 SSE 6 9 3 5 1025.1 1025.0 0.2
16/08:30am 20.9 21.7 18.1 84 1.7 SSW 11 15 6 8 1025.0 1024.9 0.2
16/08:00am 20.0 20.5 17.4 85 1.6 SW 11 15 6 8 1024.7 1024.6 0.2
16/07:30am 19.0 19.4 17.3 90 1.0 SSW 11 15 6 8 1024.5 1024.4 0.2
16/07:00am 18.4 18.5 16.6 89 1.1 SSW 11 15 6 8 1024.2 1024.1 0.2
16/06:30am 17.8 18.3 16.5 92 0.8 SW 9 13 5 7 1024.0 1023.9 0.2
16/06:00am 17.4 17.4 16.3 93 0.7 SSW 11 13 6 7 1023.7 1023.6 0.2
16/05:30am 17.3 17.2 16.0 92 0.8 SSW 11 15 6 8 1023.4 1023.3 0.2
16/05:00am 17.2 16.6 15.7 91 0.9 SSW 13 15 7 8 1023.2 1023.1 0.2
16/04:30am 17.4 16.9 15.9 91 0.9 SSW 13 15 7 8 1023.1 1023.0 0.2
16/04:00am 17.4 17.3 15.9 91 0.9 SSW 11 15 6 8 1022.9 1022.8 0.2
16/03:30am 17.5 17.7 15.8 90 1.0 SSW 9 13 5 7 1022.8 1022.7 0.2
16/03:00am 17.6 17.9 15.9 90 1.0 SSW 9 13 5 7 1022.9 1022.8 0.2

Other Formats:

Comma delimited format used in spreadsheet applications
http://www.bom.gov.au/fwo/IDQ60801/IDQ60801.95565.axf

JavaScript Object Notation format (JSON) in row-major order
http://www.bom.gov.au/fwo/IDQ60801/IDQ60801.95565.json